sensor_id;sensor_type;location;lat;lon;timestamp;temperature;humidity
59999;DHT22;45859;51.378;6.736;2023-07-13T00:00:35;17.60;99.90
59999;DHT22;45859;51.378;6.736;2023-07-13T00:03:01;17.70;99.90
59999;DHT22;45859;51.378;6.736;2023-07-13T00:05:27;17.70;99.90
59999;DHT22;45859;51.378;6.736;2023-07-13T00:07:53;17.70;99.90
59999;DHT22;45859;51.378;6.736;2023-07-13T00:10:20;17.60;99.90
59999;DHT22;45859;51.378;6.736;2023-07-13T00:12:45;17.60;99.90
59999;DHT22;45859;51.378;6.736;2023-07-13T00:15:24;17.60;99.90
59999;DHT22;45859;51.378;6.736;2023-07-13T00:17:52;17.50;99.90
59999;DHT22;45859;51.378;6.736;2023-07-13T00:20:18;17.40;99.90
59999;DHT22;45859;51.378;6.736;2023-07-13T00:22:46;17.40;99.90
59999;DHT22;45859;51.378;6.736;2023-07-13T00:25:12;17.40;99.90
59999;DHT22;45859;51.378;6.736;2023-07-13T00:27:38;17.30;99.90
59999;DHT22;45859;51.378;6.736;2023-07-13T00:30:05;17.30;99.90
59999;DHT22;45859;51.378;6.736;2023-07-13T00:32:31;17.30;99.90
59999;DHT22;45859;51.378;6.736;2023-07-13T00:34:57;17.20;99.90
59999;DHT22;45859;51.378;6.736;2023-07-13T00:37:23;17.20;99.90
59999;DHT22;45859;51.378;6.736;2023-07-13T00:39:49;17.00;99.90
59999;DHT22;45859;51.378;6.736;2023-07-13T00:42:15;16.90;99.90
59999;DHT22;45859;51.378;6.736;2023-07-13T00:44:41;16.80;99.90
59999;DHT22;45859;51.378;6.736;2023-07-13T00:47:06;16.70;99.90
59999;DHT22;45859;51.378;6.736;2023-07-13T00:49:33;16.60;99.90
59999;DHT22;45859;51.378;6.736;2023-07-13T00:52:04;16.60;99.90
59999;DHT22;45859;51.378;6.736;2023-07-13T00:54:37;16.40;99.90
59999;DHT22;45859;51.378;6.736;2023-07-13T00:57:07;16.30;99.90
59999;DHT22;45859;51.378;6.736;2023-07-13T00:59:35;16.20;99.90
59999;DHT22;45859;51.378;6.736;2023-07-13T01:02:02;16.20;99.90
59999;DHT22;45859;51.378;6.736;2023-07-13T01:04:29;16.10;99.90
59999;DHT22;45859;51.378;6.736;2023-07-13T01:06:55;17.10;99.90
59999;DHT22;45859;51.378;6.736;2023-07-13T01:09:22;16.20;99.90
59999;DHT22;45859;51.378;6.736;2023-07-13T01:11:48;16.20;99.90
59999;DHT22;45859;51.378;6.736;2023-07-13T01:14:15;16.20;99.90
59999;DHT22;45859;51.378;6.736;2023-07-13T01:16:43;16.30;99.90
59999;DHT22;45859;51.378;6.736;2023-07-13T01:19:21;16.30;99.90
59999;DHT22;45859;51.378;6.736;2023-07-13T01:21:52;16.30;99.90
59999;DHT22;45859;51.378;6.736;2023-07-13T01:24:18;16.30;99.90
59999;DHT22;45859;51.378;6.736;2023-07-13T01:26:43;16.30;99.90
59999;DHT22;45859;51.378;6.736;2023-07-13T01:29:09;16.30;99.90
59999;DHT22;45859;51.378;6.736;2023-07-13T01:31:34;16.30;99.90
59999;DHT22;45859;51.378;6.736;2023-07-13T01:34:00;16.30;99.90
59999;DHT22;45859;51.378;6.736;2023-07-13T01:36:26;16.40;99.90
59999;DHT22;45859;51.378;6.736;2023-07-13T01:38:52;16.40;99.90
59999;DHT22;45859;51.378;6.736;2023-07-13T01:41:18;16.40;99.90
59999;DHT22;45859;51.378;6.736;2023-07-13T01:43:43;16.40;99.90
59999;DHT22;45859;51.378;6.736;2023-07-13T01:46:09;16.50;99.90
59999;DHT22;45859;51.378;6.736;2023-07-13T01:48:35;16.50;99.90
59999;DHT22;45859;51.378;6.736;2023-07-13T01:51:00;16.50;99.90
59999;DHT22;45859;51.378;6.736;2023-07-13T01:53:26;16.50;99.90
59999;DHT22;45859;51.378;6.736;2023-07-13T01:55:52;16.50;99.90
59999;DHT22;45859;51.378;6.736;2023-07-13T01:58:17;16.40;99.90
59999;DHT22;45859;51.378;6.736;2023-07-13T02:00:43;16.30;99.90
59999;DHT22;45859;51.378;6.736;2023-07-13T02:03:09;16.20;99.90
59999;DHT22;45859;51.378;6.736;2023-07-13T02:05:35;16.10;99.90
59999;DHT22;45859;51.378;6.736;2023-07-13T02:08:01;16.10;99.90
59999;DHT22;45859;51.378;6.736;2023-07-13T02:10:27;16.00;99.90
59999;DHT22;45859;51.378;6.736;2023-07-13T02:12:54;15.80;99.90
59999;DHT22;45859;51.378;6.736;2023-07-13T02:15:19;15.80;99.90
59999;DHT22;45859;51.378;6.736;2023-07-13T02:17:45;15.70;99.90
59999;DHT22;45859;51.378;6.736;2023-07-13T02:20:11;15.70;99.90
59999;DHT22;45859;51.378;6.736;2023-07-13T02:22:37;15.60;99.90
59999;DHT22;45859;51.378;6.736;2023-07-13T02:25:03;15.60;99.90
59999;DHT22;45859;51.378;6.736;2023-07-13T02:27:29;15.50;99.90
59999;DHT22;45859;51.378;6.736;2023-07-13T02:29:54;15.70;99.90
59999;DHT22;45859;51.378;6.736;2023-07-13T02:32:20;15.60;99.90
59999;DHT22;45859;51.378;6.736;2023-07-13T02:34:46;15.60;99.90
59999;DHT22;45859;51.378;6.736;2023-07-13T02:37:11;15.70;99.90
59999;DHT22;45859;51.378;6.736;2023-07-13T02:39:37;15.60;99.90
59999;DHT22;45859;51.378;6.736;2023-07-13T02:42:03;15.60;99.90
59999;DHT22;45859;51.378;6.736;2023-07-13T02:44:29;15.50;99.90
59999;DHT22;45859;51.378;6.736;2023-07-13T02:46:54;15.50;99.90
59999;DHT22;45859;51.378;6.736;2023-07-13T02:49:20;15.40;99.90
59999;DHT22;45859;51.378;6.736;2023-07-13T02:51:46;15.40;99.90
59999;DHT22;45859;51.378;6.736;2023-07-13T02:54:11;15.40;99.90
59999;DHT22;45859;51.378;6.736;2023-07-13T02:56:39;15.40;99.90
59999;DHT22;45859;51.378;6.736;2023-07-13T02:59:05;15.30;99.90
59999;DHT22;45859;51.378;6.736;2023-07-13T03:01:31;15.30;99.90
59999;DHT22;45859;51.378;6.736;2023-07-13T03:04:00;15.20;99.90
59999;DHT22;45859;51.378;6.736;2023-07-13T03:06:25;15.30;99.90
59999;DHT22;45859;51.378;6.736;2023-07-13T03:08:55;15.20;99.90
59999;DHT22;45859;51.378;6.736;2023-07-13T03:11:21;15.30;99.90
59999;DHT22;45859;51.378;6.736;2023-07-13T03:13:47;15.00;99.90
59999;DHT22;45859;51.378;6.736;2023-07-13T03:16:14;15.00;99.90
59999;DHT22;45859;51.378;6.736;2023-07-13T03:18:41;14.90;99.90
59999;DHT22;45859;51.378;6.736;2023-07-13T03:21:07;14.80;99.90
59999;DHT22;45859;51.378;6.736;2023-07-13T03:23:32;14.70;99.90
59999;DHT22;45859;51.378;6.736;2023-07-13T03:26:08;14.70;99.90
59999;DHT22;45859;51.378;6.736;2023-07-13T03:28:34;14.70;99.90
59999;DHT22;45859;51.378;6.736;2023-07-13T03:31:05;14.60;99.90
59999;DHT22;45859;51.378;6.736;2023-07-13T03:33:32;14.70;99.90
59999;DHT22;45859;51.378;6.736;2023-07-13T03:35:57;14.90;99.90
59999;DHT22;45859;51.378;6.736;2023-07-13T03:38:23;14.80;99.90
59999;DHT22;45859;51.378;6.736;2023-07-13T03:40:49;14.90;99.90
59999;DHT22;45859;51.378;6.736;2023-07-13T03:43:15;15.00;99.90
59999;DHT22;45859;51.378;6.736;2023-07-13T03:45:41;15.40;99.90
59999;DHT22;45859;51.378;6.736;2023-07-13T03:48:07;15.10;99.90
59999;DHT22;45859;51.378;6.736;2023-07-13T03:50:32;15.10;99.90
59999;DHT22;45859;51.378;6.736;2023-07-13T03:52:59;15.10;99.90
59999;DHT22;45859;51.378;6.736;2023-07-13T03:55:25;15.10;99.90
59999;DHT22;45859;51.378;6.736;2023-07-13T03:57:58;15.10;99.90
59999;DHT22;45859;51.378;6.736;2023-07-13T04:00:24;15.20;99.90
59999;DHT22;45859;51.378;6.736;2023-07-13T04:02:50;15.30;99.90
59999;DHT22;45859;51.378;6.736;2023-07-13T04:05:16;15.30;99.90
59999;DHT22;45859;51.378;6.736;2023-07-13T04:07:41;15.30;99.90
59999;DHT22;45859;51.378;6.736;2023-07-13T04:10:07;15.30;99.90
59999;DHT22;45859;51.378;6.736;2023-07-13T04:12:33;15.30;99.90
59999;DHT22;45859;51.378;6.736;2023-07-13T04:14:59;15.30;99.90
59999;DHT22;45859;51.378;6.736;2023-07-13T04:17:24;15.30;99.90
59999;DHT22;45859;51.378;6.736;2023-07-13T04:19:50;15.30;99.90
59999;DHT22;45859;51.378;6.736;2023-07-13T04:22:16;15.30;99.90
59999;DHT22;45859;51.378;6.736;2023-07-13T04:24:41;15.40;99.90
59999;DHT22;45859;51.378;6.736;2023-07-13T04:27:07;15.30;99.90
59999;DHT22;45859;51.378;6.736;2023-07-13T04:29:32;15.30;99.90
59999;DHT22;45859;51.378;6.736;2023-07-13T04:31:58;15.70;99.90
59999;DHT22;45859;51.378;6.736;2023-07-13T04:34:24;15.30;99.90
59999;DHT22;45859;51.378;6.736;2023-07-13T04:36:50;15.40;99.90
59999;DHT22;45859;51.378;6.736;2023-07-13T04:39:16;15.50;99.90
59999;DHT22;45859;51.378;6.736;2023-07-13T04:41:41;15.40;99.90
59999;DHT22;45859;51.378;6.736;2023-07-13T04:44:07;15.50;99.90
59999;DHT22;45859;51.378;6.736;2023-07-13T04:46:33;15.50;99.90
59999;DHT22;45859;51.378;6.736;2023-07-13T04:48:58;15.40;99.90
59999;DHT22;45859;51.378;6.736;2023-07-13T04:51:25;15.50;99.90
59999;DHT22;45859;51.378;6.736;2023-07-13T04:53:51;15.50;99.90
59999;DHT22;45859;51.378;6.736;2023-07-13T04:56:17;15.50;99.90
59999;DHT22;45859;51.378;6.736;2023-07-13T04:58:42;15.60;99.90
59999;DHT22;45859;51.378;6.736;2023-07-13T05:01:09;15.60;99.90
59999;DHT22;45859;51.378;6.736;2023-07-13T05:03:35;15.70;99.90
59999;DHT22;45859;51.378;6.736;2023-07-13T05:06:04;15.90;99.90
59999;DHT22;45859;51.378;6.736;2023-07-13T05:08:30;15.80;99.90
59999;DHT22;45859;51.378;6.736;2023-07-13T05:10:55;15.90;99.90
59999;DHT22;45859;51.378;6.736;2023-07-13T05:13:22;16.00;99.90
59999;DHT22;45859;51.378;6.736;2023-07-13T05:15:59;16.20;99.90
59999;DHT22;45859;51.378;6.736;2023-07-13T05:18:25;16.30;99.90
59999;DHT22;45859;51.378;6.736;2023-07-13T05:21:05;16.50;99.90
59999;DHT22;45859;51.378;6.736;2023-07-13T05:23:32;16.50;99.90
59999;DHT22;45859;51.378;6.736;2023-07-13T05:25:58;16.60;99.90
59999;DHT22;45859;51.378;6.736;2023-07-13T05:28:25;16.70;99.90
59999;DHT22;45859;51.378;6.736;2023-07-13T05:30:51;16.90;99.90
59999;DHT22;45859;51.378;6.736;2023-07-13T05:33:17;17.00;99.90
59999;DHT22;45859;51.378;6.736;2023-07-13T05:35:43;17.20;99.90
59999;DHT22;45859;51.378;6.736;2023-07-13T05:38:09;17.30;99.90
59999;DHT22;45859;51.378;6.736;2023-07-13T05:40:34;17.40;99.90
59999;DHT22;45859;51.378;6.736;2023-07-13T05:43:00;17.50;99.90
59999;DHT22;45859;51.378;6.736;2023-07-13T05:45:26;17.60;99.90
59999;DHT22;45859;51.378;6.736;2023-07-13T05:47:51;17.50;99.90
59999;DHT22;45859;51.378;6.736;2023-07-13T05:50:18;17.60;99.90
59999;DHT22;45859;51.378;6.736;2023-07-13T05:52:43;17.70;99.90
59999;DHT22;45859;51.378;6.736;2023-07-13T05:55:09;17.70;99.90
59999;DHT22;45859;51.378;6.736;2023-07-13T05:57:34;17.90;99.90
59999;DHT22;45859;51.378;6.736;2023-07-13T06:00:00;18.10;99.90
59999;DHT22;45859;51.378;6.736;2023-07-13T06:02:27;18.40;99.90
59999;DHT22;45859;51.378;6.736;2023-07-13T06:04:52;18.90;99.90
59999;DHT22;45859;51.378;6.736;2023-07-13T06:07:18;19.30;99.90
59999;DHT22;45859;51.378;6.736;2023-07-13T06:09:44;20.20;99.90
59999;DHT22;45859;51.378;6.736;2023-07-13T06:12:09;20.80;99.90
59999;DHT22;45859;51.378;6.736;2023-07-13T06:14:35;21.20;99.90
59999;DHT22;45859;51.378;6.736;2023-07-13T06:17:01;21.60;99.90
59999;DHT22;45859;51.378;6.736;2023-07-13T06:19:26;21.80;99.90
59999;DHT22;45859;51.378;6.736;2023-07-13T06:21:52;22.30;99.90
59999;DHT22;45859;51.378;6.736;2023-07-13T06:24:17;22.20;99.90
59999;DHT22;45859;51.378;6.736;2023-07-13T06:26:43;22.70;99.90
59999;DHT22;45859;51.378;6.736;2023-07-13T06:29:09;22.50;99.90
59999;DHT22;45859;51.378;6.736;2023-07-13T06:31:34;22.20;99.90
59999;DHT22;45859;51.378;6.736;2023-07-13T06:34:00;22.20;99.90
59999;DHT22;45859;51.378;6.736;2023-07-13T06:36:25;22.30;99.90
59999;DHT22;45859;51.378;6.736;2023-07-13T06:38:51;22.50;99.90
59999;DHT22;45859;51.378;6.736;2023-07-13T06:41:17;22.70;99.90
59999;DHT22;45859;51.378;6.736;2023-07-13T06:43:42;22.80;99.90
59999;DHT22;45859;51.378;6.736;2023-07-13T06:46:08;23.10;99.90
59999;DHT22;45859;51.378;6.736;2023-07-13T06:48:33;23.00;99.90
59999;DHT22;45859;51.378;6.736;2023-07-13T06:50:59;21.80;99.90
59999;DHT22;45859;51.378;6.736;2023-07-13T06:53:25;21.20;99.90
59999;DHT22;45859;51.378;6.736;2023-07-13T06:55:50;20.30;99.90
59999;DHT22;45859;51.378;6.736;2023-07-13T06:58:17;19.90;99.90
59999;DHT22;45859;51.378;6.736;2023-07-13T07:00:44;19.60;99.90
59999;DHT22;45859;51.378;6.736;2023-07-13T07:03:09;19.40;99.90
59999;DHT22;45859;51.378;6.736;2023-07-13T07:05:35;19.20;99.90
59999;DHT22;45859;51.378;6.736;2023-07-13T07:08:00;19.10;99.90
59999;DHT22;45859;51.378;6.736;2023-07-13T07:10:28;18.90;99.90
59999;DHT22;45859;51.378;6.736;2023-07-13T07:12:54;18.70;99.90
59999;DHT22;45859;51.378;6.736;2023-07-13T07:15:20;18.60;99.90
59999;DHT22;45859;51.378;6.736;2023-07-13T07:17:45;18.60;99.90
59999;DHT22;45859;51.378;6.736;2023-07-13T07:20:12;18.50;99.90
59999;DHT22;45859;51.378;6.736;2023-07-13T07:22:38;18.50;99.90
59999;DHT22;45859;51.378;6.736;2023-07-13T07:25:04;18.60;99.90
59999;DHT22;45859;51.378;6.736;2023-07-13T07:27:29;18.50;99.90
59999;DHT22;45859;51.378;6.736;2023-07-13T07:29:55;18.50;99.90
59999;DHT22;45859;51.378;6.736;2023-07-13T07:32:23;18.50;99.90
59999;DHT22;45859;51.378;6.736;2023-07-13T07:34:48;18.50;99.90
59999;DHT22;45859;51.378;6.736;2023-07-13T07:37:14;18.50;99.90
59999;DHT22;45859;51.378;6.736;2023-07-13T07:39:40;18.50;99.90
59999;DHT22;45859;51.378;6.736;2023-07-13T07:42:07;18.70;99.90
59999;DHT22;45859;51.378;6.736;2023-07-13T07:44:33;18.80;99.90
59999;DHT22;45859;51.378;6.736;2023-07-13T07:46:59;19.00;99.90
59999;DHT22;45859;51.378;6.736;2023-07-13T07:49:25;19.00;99.90
59999;DHT22;45859;51.378;6.736;2023-07-13T07:51:51;19.20;99.90
59999;DHT22;45859;51.378;6.736;2023-07-13T07:54:16;19.30;99.90
59999;DHT22;45859;51.378;6.736;2023-07-13T07:56:42;19.40;99.90
59999;DHT22;45859;51.378;6.736;2023-07-13T07:59:08;19.40;99.90
59999;DHT22;45859;51.378;6.736;2023-07-13T08:01:34;19.50;99.90
59999;DHT22;45859;51.378;6.736;2023-07-13T08:03:59;19.30;99.90
59999;DHT22;45859;51.378;6.736;2023-07-13T08:06:25;19.20;99.90
59999;DHT22;45859;51.378;6.736;2023-07-13T08:08:51;19.50;99.90
59999;DHT22;45859;51.378;6.736;2023-07-13T08:11:17;20.30;99.90
59999;DHT22;45859;51.378;6.736;2023-07-13T08:13:43;20.30;99.90
59999;DHT22;45859;51.378;6.736;2023-07-13T08:16:08;20.50;99.90
59999;DHT22;45859;51.378;6.736;2023-07-13T08:18:34;20.80;99.90
59999;DHT22;45859;51.378;6.736;2023-07-13T08:21:07;21.00;99.90
59999;DHT22;45859;51.378;6.736;2023-07-13T08:23:34;21.30;99.90
59999;DHT22;45859;51.378;6.736;2023-07-13T08:25:59;21.40;99.90
59999;DHT22;45859;51.378;6.736;2023-07-13T08:28:27;21.00;99.90
59999;DHT22;45859;51.378;6.736;2023-07-13T08:30:53;21.50;99.90
59999;DHT22;45859;51.378;6.736;2023-07-13T08:33:20;21.20;99.90
59999;DHT22;45859;51.378;6.736;2023-07-13T08:35:47;21.00;99.90
59999;DHT22;45859;51.378;6.736;2023-07-13T08:38:13;20.50;99.90
59999;DHT22;45859;51.378;6.736;2023-07-13T08:40:39;20.30;99.90
59999;DHT22;45859;51.378;6.736;2023-07-13T08:43:12;20.20;99.90
59999;DHT22;45859;51.378;6.736;2023-07-13T08:45:52;20.00;99.90
59999;DHT22;45859;51.378;6.736;2023-07-13T08:48:24;20.20;99.90
59999;DHT22;45859;51.378;6.736;2023-07-13T08:53:39;20.20;99.90
59999;DHT22;45859;51.378;6.736;2023-07-13T08:56:11;20.50;99.90
59999;DHT22;45859;51.378;6.736;2023-07-13T08:58:40;20.70;99.90
59999;DHT22;45859;51.378;6.736;2023-07-13T09:04:04;21.20;99.90
59999;DHT22;45859;51.378;6.736;2023-07-13T09:06:55;21.50;99.90
59999;DHT22;45859;51.378;6.736;2023-07-13T09:09:58;21.60;99.90
59999;DHT22;45859;51.378;6.736;2023-07-13T09:15:37;21.30;99.90
59999;DHT22;45859;51.378;6.736;2023-07-13T09:18:27;21.60;99.90
59999;DHT22;45859;51.378;6.736;2023-07-13T09:21:02;22.00;99.90
59999;DHT22;45859;51.378;6.736;2023-07-13T09:23:29;21.70;99.90
59999;DHT22;45859;51.378;6.736;2023-07-13T09:26:06;21.10;99.90
59999;DHT22;45859;51.378;6.736;2023-07-13T09:28:40;20.90;99.90
59999;DHT22;45859;51.378;6.736;2023-07-13T09:31:21;21.00;99.90
59999;DHT22;45859;51.378;6.736;2023-07-13T09:33:49;21.00;99.90
59999;DHT22;45859;51.378;6.736;2023-07-13T09:36:31;21.20;99.90
59999;DHT22;45859;51.378;6.736;2023-07-13T09:44:16;22.30;99.90
59999;DHT22;45859;51.378;6.736;2023-07-13T09:46:52;23.00;99.90
59999;DHT22;45859;51.378;6.736;2023-07-13T09:49:18;22.70;99.90
59999;DHT22;45859;51.378;6.736;2023-07-13T09:51:45;22.40;99.90
59999;DHT22;45859;51.378;6.736;2023-07-13T09:54:23;22.00;99.90
59999;DHT22;45859;51.378;6.736;2023-07-13T09:56:57;21.50;99.90
59999;DHT22;45859;51.378;6.736;2023-07-13T09:59:27;21.40;99.90
59999;DHT22;45859;51.378;6.736;2023-07-13T10:01:54;21.40;99.90
59999;DHT22;45859;51.378;6.736;2023-07-13T10:04:28;21.20;99.90
59999;DHT22;45859;51.378;6.736;2023-07-13T10:07:08;21.20;99.90
59999;DHT22;45859;51.378;6.736;2023-07-13T10:09:36;21.60;99.90
59999;DHT22;45859;51.378;6.736;2023-07-13T10:12:12;22.10;99.90
59999;DHT22;45859;51.378;6.736;2023-07-13T10:14:38;22.60;99.90
59999;DHT22;45859;51.378;6.736;2023-07-13T10:17:06;22.50;99.90
59999;DHT22;45859;51.378;6.736;2023-07-13T10:19:35;22.00;99.90
59999;DHT22;45859;51.378;6.736;2023-07-13T10:22:14;22.00;99.90
59999;DHT22;45859;51.378;6.736;2023-07-13T10:24:43;22.00;99.90
59999;DHT22;45859;51.378;6.736;2023-07-13T10:27:16;21.60;99.90
59999;DHT22;45859;51.378;6.736;2023-07-13T10:30:17;21.60;99.90
59999;DHT22;45859;51.378;6.736;2023-07-13T10:32:45;21.70;99.90
59999;DHT22;45859;51.378;6.736;2023-07-13T10:35:14;21.90;99.90
59999;DHT22;45859;51.378;6.736;2023-07-13T10:37:54;22.30;99.90
59999;DHT22;45859;51.378;6.736;2023-07-13T10:40:31;22.10;99.90
59999;DHT22;45859;51.378;6.736;2023-07-13T10:42:59;22.50;99.90
59999;DHT22;45859;51.378;6.736;2023-07-13T10:45:34;22.70;99.90
59999;DHT22;45859;51.378;6.736;2023-07-13T10:48:01;22.80;99.90
59999;DHT22;45859;51.378;6.736;2023-07-13T10:50:29;22.60;99.90
59999;DHT22;45859;51.378;6.736;2023-07-13T10:53:30;22.40;99.90
59999;DHT22;45859;51.378;6.736;2023-07-13T10:56:23;22.50;99.90
59999;DHT22;45859;51.378;6.736;2023-07-13T10:59:11;23.10;99.90
59999;DHT22;45859;51.378;6.736;2023-07-13T11:01:55;24.20;99.90
59999;DHT22;45859;51.378;6.736;2023-07-13T11:04:21;24.10;99.90
59999;DHT22;45859;51.378;6.736;2023-07-13T11:06:52;24.60;99.90
59999;DHT22;45859;51.378;6.736;2023-07-13T11:12:10;24.50;99.90
59999;DHT22;45859;51.378;6.736;2023-07-13T11:20:22;24.60;99.90
59999;DHT22;45859;51.378;6.736;2023-07-13T11:23:07;24.70;99.90
59999;DHT22;45859;51.378;6.736;2023-07-13T11:25:35;24.80;99.90
59999;DHT22;45859;51.378;6.736;2023-07-13T11:31:12;24.40;99.90
59999;DHT22;45859;51.378;6.736;2023-07-13T11:36:24;24.30;99.90
59999;DHT22;45859;51.378;6.736;2023-07-13T11:39:03;24.30;99.90
59999;DHT22;45859;51.378;6.736;2023-07-13T11:41:35;24.10;99.90
59999;DHT22;45859;51.378;6.736;2023-07-13T11:44:13;24.10;99.90
59999;DHT22;45859;51.378;6.736;2023-07-13T11:46:51;24.30;99.90
59999;DHT22;45859;51.378;6.736;2023-07-13T11:49:19;24.30;99.90
59999;DHT22;45859;51.378;6.736;2023-07-13T11:51:46;24.30;99.90
59999;DHT22;45859;51.378;6.736;2023-07-13T11:54:29;24.40;99.90
59999;DHT22;45859;51.378;6.736;2023-07-13T11:59:45;24.40;99.90
59999;DHT22;45859;51.378;6.736;2023-07-13T12:02:32;24.30;99.90
59999;DHT22;45859;51.378;6.736;2023-07-13T12:05:00;24.50;99.90
59999;DHT22;45859;51.378;6.736;2023-07-13T12:07:29;24.70;99.90
59999;DHT22;45859;51.378;6.736;2023-07-13T12:10:03;24.40;99.90
59999;DHT22;45859;51.378;6.736;2023-07-13T12:12:36;24.10;99.90
59999;DHT22;45859;51.378;6.736;2023-07-13T12:15:07;23.70;99.90
59999;DHT22;45859;51.378;6.736;2023-07-13T12:17:34;23.70;99.90
59999;DHT22;45859;51.378;6.736;2023-07-13T12:20:03;23.80;99.90
59999;DHT22;45859;51.378;6.736;2023-07-13T12:22:32;23.80;99.90
59999;DHT22;45859;51.378;6.736;2023-07-13T12:24:59;23.70;99.90
59999;DHT22;45859;51.378;6.736;2023-07-13T12:27:27;23.60;99.90
59999;DHT22;45859;51.378;6.736;2023-07-13T12:30:04;23.80;99.90
59999;DHT22;45859;51.378;6.736;2023-07-13T12:32:31;24.20;99.90
59999;DHT22;45859;51.378;6.736;2023-07-13T12:35:15;24.20;99.90
59999;DHT22;45859;51.378;6.736;2023-07-13T12:37:45;24.00;99.90
59999;DHT22;45859;51.378;6.736;2023-07-13T12:40:19;24.00;99.90
59999;DHT22;45859;51.378;6.736;2023-07-13T12:42:49;23.40;99.90
59999;DHT22;45859;51.378;6.736;2023-07-13T12:45:24;23.40;99.90
59999;DHT22;45859;51.378;6.736;2023-07-13T12:47:57;23.40;99.90
59999;DHT22;45859;51.378;6.736;2023-07-13T12:50:47;23.30;99.90
59999;DHT22;45859;51.378;6.736;2023-07-13T12:53:16;23.20;99.90
59999;DHT22;45859;51.378;6.736;2023-07-13T12:55:52;23.10;99.90
59999;DHT22;45859;51.378;6.736;2023-07-13T13:00:56;23.00;99.90
59999;DHT22;45859;51.378;6.736;2023-07-13T13:06:07;22.40;99.90
59999;DHT22;45859;51.378;6.736;2023-07-13T13:08:46;22.40;99.90
59999;DHT22;45859;51.378;6.736;2023-07-13T13:11:17;22.60;99.90
59999;DHT22;45859;51.378;6.736;2023-07-13T13:13:44;22.90;99.90
59999;DHT22;45859;51.378;6.736;2023-07-13T13:18:35;23.80;99.90
59999;DHT22;45859;51.378;6.736;2023-07-13T13:21:01;24.10;99.90
59999;DHT22;45859;51.378;6.736;2023-07-13T13:23:27;24.30;99.90
59999;DHT22;45859;51.378;6.736;2023-07-13T13:25:53;24.60;99.90
59999;DHT22;45859;51.378;6.736;2023-07-13T13:28:20;24.60;99.90
59999;DHT22;45859;51.378;6.736;2023-07-13T13:30:48;24.60;99.90
59999;DHT22;45859;51.378;6.736;2023-07-13T13:33:16;24.60;99.90
59999;DHT22;45859;51.378;6.736;2023-07-13T13:35:43;24.20;99.90
59999;DHT22;45859;51.378;6.736;2023-07-13T13:38:12;24.00;99.90
59999;DHT22;45859;51.378;6.736;2023-07-13T13:40:40;24.00;99.90
59999;DHT22;45859;51.378;6.736;2023-07-13T13:43:32;24.10;99.90
59999;DHT22;45859;51.378;6.736;2023-07-13T13:45:59;24.10;99.90
59999;DHT22;45859;51.378;6.736;2023-07-13T13:48:35;24.10;99.90
59999;DHT22;45859;51.378;6.736;2023-07-13T13:51:16;24.00;99.90
59999;DHT22;45859;51.378;6.736;2023-07-13T13:53:42;23.80;99.90
59999;DHT22;45859;51.378;6.736;2023-07-13T13:56:08;23.90;99.90
59999;DHT22;45859;51.378;6.736;2023-07-13T13:58:33;24.20;99.90
59999;DHT22;45859;51.378;6.736;2023-07-13T14:00:59;24.50;99.90
59999;DHT22;45859;51.378;6.736;2023-07-13T14:03:25;24.40;99.90
59999;DHT22;45859;51.378;6.736;2023-07-13T14:05:53;24.40;99.90
59999;DHT22;45859;51.378;6.736;2023-07-13T14:08:20;24.30;99.90
59999;DHT22;45859;51.378;6.736;2023-07-13T14:10:49;24.30;99.90
59999;DHT22;45859;51.378;6.736;2023-07-13T14:13:32;24.40;99.90
59999;DHT22;45859;51.378;6.736;2023-07-13T14:15:59;24.40;99.90
59999;DHT22;45859;51.378;6.736;2023-07-13T14:18:25;24.30;99.90
59999;DHT22;45859;51.378;6.736;2023-07-13T14:20:50;24.40;99.90
59999;DHT22;45859;51.378;6.736;2023-07-13T14:23:18;24.40;99.90
59999;DHT22;45859;51.378;6.736;2023-07-13T14:25:47;24.60;99.90
59999;DHT22;45859;51.378;6.736;2023-07-13T14:30:45;24.70;99.90
59999;DHT22;45859;51.378;6.736;2023-07-13T14:33:12;24.80;99.90
59999;DHT22;45859;51.378;6.736;2023-07-13T14:35:38;24.80;99.90
59999;DHT22;45859;51.378;6.736;2023-07-13T14:38:05;24.80;99.90
59999;DHT22;45859;51.378;6.736;2023-07-13T14:40:33;24.70;99.90
59999;DHT22;45859;51.378;6.736;2023-07-13T14:42:59;24.50;99.90
59999;DHT22;45859;51.378;6.736;2023-07-13T14:45:24;24.30;99.90
59999;DHT22;45859;51.378;6.736;2023-07-13T14:47:51;23.90;99.90
59999;DHT22;45859;51.378;6.736;2023-07-13T14:50:24;23.80;99.90
59999;DHT22;45859;51.378;6.736;2023-07-13T14:52:52;23.60;99.90
59999;DHT22;45859;51.378;6.736;2023-07-13T14:55:19;23.50;99.90
59999;DHT22;45859;51.378;6.736;2023-07-13T14:57:45;23.40;99.90
59999;DHT22;45859;51.378;6.736;2023-07-13T15:00:19;23.30;99.90
59999;DHT22;45859;51.378;6.736;2023-07-13T15:02:53;23.20;99.90
59999;DHT22;45859;51.378;6.736;2023-07-13T15:05:25;22.90;99.90
59999;DHT22;45859;51.378;6.736;2023-07-13T15:07:53;22.80;99.90
59999;DHT22;45859;51.378;6.736;2023-07-13T15:10:22;22.40;99.90
59999;DHT22;45859;51.378;6.736;2023-07-13T15:12:48;22.00;99.90
59999;DHT22;45859;51.378;6.736;2023-07-13T15:15:14;21.80;99.90
59999;DHT22;45859;51.378;6.736;2023-07-13T15:17:45;21.50;99.90
59999;DHT22;45859;51.378;6.736;2023-07-13T15:20:32;21.40;99.90
59999;DHT22;45859;51.378;6.736;2023-07-13T15:22:59;21.40;99.90
59999;DHT22;45859;51.378;6.736;2023-07-13T15:25:27;21.50;99.90
59999;DHT22;45859;51.378;6.736;2023-07-13T15:27:55;21.40;99.90
59999;DHT22;45859;51.378;6.736;2023-07-13T15:30:22;21.20;99.90
59999;DHT22;45859;51.378;6.736;2023-07-13T15:32:48;21.30;99.90
59999;DHT22;45859;51.378;6.736;2023-07-13T15:35:17;21.10;99.90
59999;DHT22;45859;51.378;6.736;2023-07-13T15:37:43;21.00;99.90
59999;DHT22;45859;51.378;6.736;2023-07-13T15:40:10;21.10;99.90
59999;DHT22;45859;51.378;6.736;2023-07-13T15:42:37;21.00;99.90
59999;DHT22;45859;51.378;6.736;2023-07-13T15:45:05;21.00;99.90
59999;DHT22;45859;51.378;6.736;2023-07-13T15:47:32;21.10;99.90
59999;DHT22;45859;51.378;6.736;2023-07-13T15:49:57;21.20;99.90
59999;DHT22;45859;51.378;6.736;2023-07-13T15:52:24;21.30;99.90
59999;DHT22;45859;51.378;6.736;2023-07-13T15:54:50;21.30;99.90
59999;DHT22;45859;51.378;6.736;2023-07-13T15:57:16;21.20;99.90
59999;DHT22;45859;51.378;6.736;2023-07-13T15:59:43;21.30;99.90
59999;DHT22;45859;51.378;6.736;2023-07-13T16:02:20;21.20;99.90
59999;DHT22;45859;51.378;6.736;2023-07-13T16:04:46;21.10;99.90
59999;DHT22;45859;51.378;6.736;2023-07-13T16:07:15;21.10;99.90
59999;DHT22;45859;51.378;6.736;2023-07-13T16:09:43;21.10;99.90
59999;DHT22;45859;51.378;6.736;2023-07-13T16:12:13;21.10;99.90
59999;DHT22;45859;51.378;6.736;2023-07-13T16:14:40;21.10;99.90
59999;DHT22;45859;51.378;6.736;2023-07-13T16:17:13;21.20;99.90
59999;DHT22;45859;51.378;6.736;2023-07-13T16:19:39;21.20;99.90